Aeroporto :







RITROVATECI SU...

 
LOGIN :

Iscrizione | Disclaimer

   EN    FR    IT 

 









Sommario :    VFR   VFR Marginale   IFR   IFR Intensivo   IFR Molto Intensivo
Visibilità : 
Base nubi : 
>= 8 km
>= 3000ft
5 / 8 km
1000 / 3000 ft
1500m / 5 km
500 / 1000 ft
800 / 1500m
200 / 500 ft
< 800m
< 200 ft
Simboli :   Temporali  Nebbia  Neve Forte  Precipitazioni Forti  Vento > 20 kt







- Altitudine del aeroporto : 90 ft
- Codice IATA : YHU


CYHU - Montréal Saint-Hubert

ULTIMO METAR :
  • 230500Z AUTO 02012G17KT 9SM CLR 08/M01 A3013 RMK SLP203

METARs OBSOLETI :
  • 230400Z AUTO 01013KT 9SM CLR 09/01 A3014 RMK SLP208
  • 230300Z AUTO 02011G17KT 9SM CLR 11/M02 A3015 RMK SLP210

TAF TAF CYHU
Valido dal 23 a 06 ore il 24 a 06 ore UTC


230538Z 2306/2406 02012G22KT P6SM SCT140
FM231200 03012G22KT P6SM SCT020 BKN100
FM231600 04012KT P6SM SCT030 BKN100
FM232100 07012KT P6SM BKN080
BECMG 2322/2324 07012G22KT
FM240100 07012G22KT P6SM -RA OVC050
PROB30 2402/2404 21/2SM SHRA BR
FM240400 07012KT 6SM -RA BR OVC030 RMK FCST BASED ON AUTO OBS. NXT FCST BY 231200Z
FIR CZUL / America del Nord



MetMap, La meteo Aeronautica in un colpo d'occhio ! - Copyright ORBIFLY Dicembre 2007 - Disclaimer

ORBIFLY MET'MAP TEAM :

Programmazione e sviluppo : Alexandra Zaïnal
Concezione e sviluppo : Baudouin d'Aumeries
Co-Programmazione e sviluppo : Marc-Olivier Méhu
Supporto tecnico e logistico : Manuel Goepfert
Aiuto per la traduzione : Arnaldo La Scala

Contatto : metmap@orbifly.com




FONTI E CREDITI :

   NOAA